sensor_id;sensor_type;location;lat;lon;timestamp;P1;durP1;ratioP1;P2;durP2;ratioP2
11203;SDS011;5659;49.408;11.116;2024-01-06T00:00:51;16.27;;;9.43;;
11203;SDS011;5659;49.408;11.116;2024-01-06T00:03:17;17.87;;;9.73;;
11203;SDS011;5659;49.408;11.116;2024-01-06T00:05:43;20.37;;;10.23;;
11203;SDS011;5659;49.408;11.116;2024-01-06T00:08:09;17.53;;;10.50;;
11203;SDS011;5659;49.408;11.116;2024-01-06T00:10:35;17.97;;;10.37;;
11203;SDS011;5659;49.408;11.116;2024-01-06T00:13:01;20.43;;;9.63;;
11203;SDS011;5659;49.408;11.116;2024-01-06T00:15:27;19.90;;;10.40;;
11203;SDS011;5659;49.408;11.116;2024-01-06T00:17:53;19.17;;;10.67;;
11203;SDS011;5659;49.408;11.116;2024-01-06T00:20:19;19.43;;;11.23;;
11203;SDS011;5659;49.408;11.116;2024-01-06T00:22:45;16.60;;;10.67;;
11203;SDS011;5659;49.408;11.116;2024-01-06T00:25:11;15.77;;;10.13;;
11203;SDS011;5659;49.408;11.116;2024-01-06T00:27:37;18.17;;;10.40;;
11203;SDS011;5659;49.408;11.116;2024-01-06T00:30:03;22.73;;;10.87;;
11203;SDS011;5659;49.408;11.116;2024-01-06T00:32:29;17.43;;;10.30;;
11203;SDS011;5659;49.408;11.116;2024-01-06T00:34:55;19.20;;;10.33;;
11203;SDS011;5659;49.408;11.116;2024-01-06T00:37:21;18.50;;;10.57;;
11203;SDS011;5659;49.408;11.116;2024-01-06T00:39:47;25.97;;;11.00;;
11203;SDS011;5659;49.408;11.116;2024-01-06T00:42:13;18.80;;;11.10;;
11203;SDS011;5659;49.408;11.116;2024-01-06T00:44:39;20.43;;;11.43;;
11203;SDS011;5659;49.408;11.116;2024-01-06T00:47:05;21.47;;;12.40;;
11203;SDS011;5659;49.408;11.116;2024-01-06T00:49:31;21.07;;;11.17;;
11203;SDS011;5659;49.408;11.116;2024-01-06T00:51:57;16.80;;;9.60;;
11203;SDS011;5659;49.408;11.116;2024-01-06T00:54:23;21.63;;;10.80;;
11203;SDS011;5659;49.408;11.116;2024-01-06T00:56:49;21.20;;;10.07;;
11203;SDS011;5659;49.408;11.116;2024-01-06T00:59:15;17.30;;;10.37;;
11203;SDS011;5659;49.408;11.116;2024-01-06T01:01:41;23.20;;;11.37;;
11203;SDS011;5659;49.408;11.116;2024-01-06T01:04:07;16.47;;;10.90;;
11203;SDS011;5659;49.408;11.116;2024-01-06T01:06:33;23.43;;;10.43;;
11203;SDS011;5659;49.408;11.116;2024-01-06T01:08:59;19.03;;;10.27;;
11203;SDS011;5659;49.408;11.116;2024-01-06T01:11:25;19.67;;;11.37;;
11203;SDS011;5659;49.408;11.116;2024-01-06T01:13:51;25.27;;;11.30;;
11203;SDS011;5659;49.408;11.116;2024-01-06T01:16:17;20.33;;;11.40;;
11203;SDS011;5659;49.408;11.116;2024-01-06T01:18:43;19.73;;;10.63;;
11203;SDS011;5659;49.408;11.116;2024-01-06T01:21:09;21.43;;;11.33;;
11203;SDS011;5659;49.408;11.116;2024-01-06T01:23:35;21.33;;;11.07;;
11203;SDS011;5659;49.408;11.116;2024-01-06T01:26:01;21.00;;;10.73;;
11203;SDS011;5659;49.408;11.116;2024-01-06T01:28:27;18.87;;;10.90;;
11203;SDS011;5659;49.408;11.116;2024-01-06T01:30:53;18.73;;;11.03;;
11203;SDS011;5659;49.408;11.116;2024-01-06T01:33:19;15.37;;;10.40;;
11203;SDS011;5659;49.408;11.116;2024-01-06T01:35:45;18.43;;;10.97;;
11203;SDS011;5659;49.408;11.116;2024-01-06T01:38:11;21.57;;;11.20;;
11203;SDS011;5659;49.408;11.116;2024-01-06T01:40:37;19.50;;;11.23;;
11203;SDS011;5659;49.408;11.116;2024-01-06T01:43:03;19.40;;;10.90;;
11203;SDS011;5659;49.408;11.116;2024-01-06T01:45:29;24.47;;;11.33;;
11203;SDS011;5659;49.408;11.116;2024-01-06T01:47:55;21.30;;;11.03;;
11203;SDS011;5659;49.408;11.116;2024-01-06T01:50:22;16.63;;;10.30;;
11203;SDS011;5659;49.408;11.116;2024-01-06T01:52:48;17.40;;;10.80;;
11203;SDS011;5659;49.408;11.116;2024-01-06T01:55:14;21.50;;;10.57;;
11203;SDS011;5659;49.408;11.116;2024-01-06T01:57:40;18.07;;;11.50;;
11203;SDS011;5659;49.408;11.116;2024-01-06T02:00:06;14.93;;;10.30;;
11203;SDS011;5659;49.408;11.116;2024-01-06T02:02:32;16.93;;;11.50;;
11203;SDS011;5659;49.408;11.116;2024-01-06T02:04:59;14.80;;;10.37;;
11203;SDS011;5659;49.408;11.116;2024-01-06T02:07:25;16.43;;;9.90;;
11203;SDS011;5659;49.408;11.116;2024-01-06T02:09:51;17.40;;;10.93;;
11203;SDS011;5659;49.408;11.116;2024-01-06T02:12:17;22.57;;;11.97;;
11203;SDS011;5659;49.408;11.116;2024-01-06T02:14:43;19.10;;;11.30;;
11203;SDS011;5659;49.408;11.116;2024-01-06T02:17:09;18.17;;;11.67;;
11203;SDS011;5659;49.408;11.116;2024-01-06T02:19:35;19.50;;;11.43;;
11203;SDS011;5659;49.408;11.116;2024-01-06T02:22:01;19.67;;;11.27;;
11203;SDS011;5659;49.408;11.116;2024-01-06T02:24:27;15.70;;;11.63;;
11203;SDS011;5659;49.408;11.116;2024-01-06T02:26:53;20.37;;;11.27;;
11203;SDS011;5659;49.408;11.116;2024-01-06T02:29:18;23.17;;;11.27;;
11203;SDS011;5659;49.408;11.116;2024-01-06T02:31:44;17.57;;;11.23;;
11203;SDS011;5659;49.408;11.116;2024-01-06T02:34:10;20.77;;;11.17;;
11203;SDS011;5659;49.408;11.116;2024-01-06T02:36:36;19.70;;;12.43;;
11203;SDS011;5659;49.408;11.116;2024-01-06T02:39:02;21.13;;;11.33;;
11203;SDS011;5659;49.408;11.116;2024-01-06T02:41:28;19.00;;;11.43;;
11203;SDS011;5659;49.408;11.116;2024-01-06T02:43:54;26.30;;;11.40;;
11203;SDS011;5659;49.408;11.116;2024-01-06T02:46:23;22.17;;;12.17;;
11203;SDS011;5659;49.408;11.116;2024-01-06T02:48:49;18.90;;;12.10;;
11203;SDS011;5659;49.408;11.116;2024-01-06T02:51:15;17.90;;;12.23;;
11203;SDS011;5659;49.408;11.116;2024-01-06T02:53:41;19.27;;;12.40;;
11203;SDS011;5659;49.408;11.116;2024-01-06T02:56:10;21.37;;;12.83;;
11203;SDS011;5659;49.408;11.116;2024-01-06T02:58:36;33.67;;;13.57;;
11203;SDS011;5659;49.408;11.116;2024-01-06T03:01:02;26.10;;;14.40;;
11203;SDS011;5659;49.408;11.116;2024-01-06T03:03:28;20.03;;;12.47;;
11203;SDS011;5659;49.408;11.116;2024-01-06T03:05:55;25.43;;;13.17;;
11203;SDS011;5659;49.408;11.116;2024-01-06T03:08:21;27.10;;;13.43;;
11203;SDS011;5659;49.408;11.116;2024-01-06T03:10:47;23.00;;;12.90;;
11203;SDS011;5659;49.408;11.116;2024-01-06T03:13:13;22.10;;;13.00;;
11203;SDS011;5659;49.408;11.116;2024-01-06T03:15:39;24.57;;;12.73;;
11203;SDS011;5659;49.408;11.116;2024-01-06T03:18:05;20.80;;;13.13;;
11203;SDS011;5659;49.408;11.116;2024-01-06T03:20:31;18.57;;;12.80;;
11203;SDS011;5659;49.408;11.116;2024-01-06T03:22:57;17.50;;;12.53;;
11203;SDS011;5659;49.408;11.116;2024-01-06T03:25:23;18.57;;;12.03;;
11203;SDS011;5659;49.408;11.116;2024-01-06T03:27:49;20.50;;;12.60;;
11203;SDS011;5659;49.408;11.116;2024-01-06T03:30:15;20.37;;;12.87;;
11203;SDS011;5659;49.408;11.116;2024-01-06T03:32:41;22.77;;;12.10;;
11203;SDS011;5659;49.408;11.116;2024-01-06T03:35:07;22.53;;;12.67;;
11203;SDS011;5659;49.408;11.116;2024-01-06T03:37:33;17.07;;;12.77;;
11203;SDS011;5659;49.408;11.116;2024-01-06T03:39:59;21.13;;;12.97;;
11203;SDS011;5659;49.408;11.116;2024-01-06T03:42:26;19.00;;;11.93;;
11203;SDS011;5659;49.408;11.116;2024-01-06T03:44:52;23.50;;;13.13;;
11203;SDS011;5659;49.408;11.116;2024-01-06T03:47:18;22.27;;;12.57;;
11203;SDS011;5659;49.408;11.116;2024-01-06T03:49:44;21.10;;;12.57;;
11203;SDS011;5659;49.408;11.116;2024-01-06T03:52:10;17.90;;;12.43;;
11203;SDS011;5659;49.408;11.116;2024-01-06T03:54:36;21.17;;;12.63;;
11203;SDS011;5659;49.408;11.116;2024-01-06T03:57:02;23.43;;;12.53;;
11203;SDS011;5659;49.408;11.116;2024-01-06T03:59:28;18.63;;;11.97;;
11203;SDS011;5659;49.408;11.116;2024-01-06T04:01:54;17.13;;;12.10;;
11203;SDS011;5659;49.408;11.116;2024-01-06T04:04:20;22.90;;;13.10;;
11203;SDS011;5659;49.408;11.116;2024-01-06T04:06:45;18.27;;;12.57;;
11203;SDS011;5659;49.408;11.116;2024-01-06T04:09:11;19.47;;;12.97;;
11203;SDS011;5659;49.408;11.116;2024-01-06T04:11:37;24.93;;;12.77;;
11203;SDS011;5659;49.408;11.116;2024-01-06T04:14:03;18.80;;;12.47;;
11203;SDS011;5659;49.408;11.116;2024-01-06T04:16:29;24.03;;;12.43;;
11203;SDS011;5659;49.408;11.116;2024-01-06T04:18:55;19.53;;;12.17;;
11203;SDS011;5659;49.408;11.116;2024-01-06T04:21:21;20.80;;;11.97;;
11203;SDS011;5659;49.408;11.116;2024-01-06T04:23:47;19.30;;;12.37;;
11203;SDS011;5659;49.408;11.116;2024-01-06T04:26:13;18.03;;;12.50;;
11203;SDS011;5659;49.408;11.116;2024-01-06T04:28:39;17.10;;;11.77;;
11203;SDS011;5659;49.408;11.116;2024-01-06T04:31:05;23.20;;;12.87;;
11203;SDS011;5659;49.408;11.116;2024-01-06T04:33:31;23.07;;;12.40;;
11203;SDS011;5659;49.408;11.116;2024-01-06T04:35:58;24.80;;;12.60;;
11203;SDS011;5659;49.408;11.116;2024-01-06T04:38:24;17.73;;;11.93;;
11203;SDS011;5659;49.408;11.116;2024-01-06T04:40:50;25.57;;;13.47;;
11203;SDS011;5659;49.408;11.116;2024-01-06T04:43:16;19.47;;;12.43;;
11203;SDS011;5659;49.408;11.116;2024-01-06T04:45:42;27.47;;;12.63;;
11203;SDS011;5659;49.408;11.116;2024-01-06T04:48:08;21.93;;;12.43;;
11203;SDS011;5659;49.408;11.116;2024-01-06T04:50:34;24.30;;;12.60;;
11203;SDS011;5659;49.408;11.116;2024-01-06T04:53:00;24.97;;;12.30;;
11203;SDS011;5659;49.408;11.116;2024-01-06T04:55:26;23.17;;;11.70;;
11203;SDS011;5659;49.408;11.116;2024-01-06T04:57:52;25.63;;;12.30;;
11203;SDS011;5659;49.408;11.116;2024-01-06T05:00:18;22.60;;;12.20;;
11203;SDS011;5659;49.408;11.116;2024-01-06T05:02:44;20.07;;;12.27;;
11203;SDS011;5659;49.408;11.116;2024-01-06T05:05:10;22.70;;;12.10;;
11203;SDS011;5659;49.408;11.116;2024-01-06T05:07:36;20.73;;;11.87;;
11203;SDS011;5659;49.408;11.116;2024-01-06T05:10:02;23.10;;;11.87;;
11203;SDS011;5659;49.408;11.116;2024-01-06T05:12:28;29.33;;;12.27;;
11203;SDS011;5659;49.408;11.116;2024-01-06T05:14:54;24.60;;;12.93;;
11203;SDS011;5659;49.408;11.116;2024-01-06T05:17:20;18.47;;;12.00;;
11203;SDS011;5659;49.408;11.116;2024-01-06T05:19:46;20.83;;;12.13;;
11203;SDS011;5659;49.408;11.116;2024-01-06T05:22:12;22.30;;;12.23;;
11203;SDS011;5659;49.408;11.116;2024-01-06T05:24:38;23.00;;;11.53;;
11203;SDS011;5659;49.408;11.116;2024-01-06T05:27:04;21.70;;;12.03;;
11203;SDS011;5659;49.408;11.116;2024-01-06T05:29:30;22.93;;;12.23;;
11203;SDS011;5659;49.408;11.116;2024-01-06T05:31:56;16.27;;;11.40;;
11203;SDS011;5659;49.408;11.116;2024-01-06T05:34:22;22.97;;;11.33;;
11203;SDS011;5659;49.408;11.116;2024-01-06T05:36:48;27.33;;;11.50;;
11203;SDS011;5659;49.408;11.116;2024-01-06T05:39:14;25.23;;;11.77;;
11203;SDS011;5659;49.408;11.116;2024-01-06T05:41:40;19.60;;;11.10;;
11203;SDS011;5659;49.408;11.116;2024-01-06T05:44:06;19.87;;;12.53;;
11203;SDS011;5659;49.408;11.116;2024-01-06T05:46:33;21.33;;;11.90;;
11203;SDS011;5659;49.408;11.116;2024-01-06T05:48:59;20.73;;;12.93;;
11203;SDS011;5659;49.408;11.116;2024-01-06T05:51:25;21.80;;;11.73;;
11203;SDS011;5659;49.408;11.116;2024-01-06T05:53:51;18.63;;;12.00;;
11203;SDS011;5659;49.408;11.116;2024-01-06T05:56:26;18.47;;;12.33;;
11203;SDS011;5659;49.408;11.116;2024-01-06T05:58:52;20.87;;;13.37;;
11203;SDS011;5659;49.408;11.116;2024-01-06T06:01:19;19.73;;;13.30;;
11203;SDS011;5659;49.408;11.116;2024-01-06T06:03:48;23.13;;;13.50;;
11203;SDS011;5659;49.408;11.116;2024-01-06T06:06:15;21.00;;;13.57;;
11203;SDS011;5659;49.408;11.116;2024-01-06T06:08:42;24.50;;;12.63;;
11203;SDS011;5659;49.408;11.116;2024-01-06T06:11:08;19.47;;;12.00;;
11203;SDS011;5659;49.408;11.116;2024-01-06T06:13:38;20.33;;;11.87;;
11203;SDS011;5659;49.408;11.116;2024-01-06T06:16:05;18.17;;;12.07;;
11203;SDS011;5659;49.408;11.116;2024-01-06T06:18:31;18.50;;;12.13;;
11203;SDS011;5659;49.408;11.116;2024-01-06T06:20:58;21.50;;;11.57;;
11203;SDS011;5659;49.408;11.116;2024-01-06T06:23:24;21.90;;;11.83;;
11203;SDS011;5659;49.408;11.116;2024-01-06T06:25:50;20.27;;;11.83;;
11203;SDS011;5659;49.408;11.116;2024-01-06T06:28:16;18.80;;;11.63;;
11203;SDS011;5659;49.408;11.116;2024-01-06T06:30:42;19.70;;;11.43;;
11203;SDS011;5659;49.408;11.116;2024-01-06T06:33:08;20.63;;;11.57;;
11203;SDS011;5659;49.408;11.116;2024-01-06T06:35:34;22.33;;;12.20;;
11203;SDS011;5659;49.408;11.116;2024-01-06T06:38:00;20.93;;;11.10;;
11203;SDS011;5659;49.408;11.116;2024-01-06T06:40:26;22.03;;;11.63;;
11203;SDS011;5659;49.408;11.116;2024-01-06T06:42:52;17.57;;;10.63;;
11203;SDS011;5659;49.408;11.116;2024-01-06T06:45:18;19.40;;;10.87;;
11203;SDS011;5659;49.408;11.116;2024-01-06T06:47:45;21.63;;;11.40;;
11203;SDS011;5659;49.408;11.116;2024-01-06T06:50:11;16.57;;;11.27;;
11203;SDS011;5659;49.408;11.116;2024-01-06T06:52:37;19.80;;;11.83;;
11203;SDS011;5659;49.408;11.116;2024-01-06T06:55:03;19.00;;;11.93;;
11203;SDS011;5659;49.408;11.116;2024-01-06T06:57:30;20.83;;;11.87;;
11203;SDS011;5659;49.408;11.116;2024-01-06T06:59:55;14.70;;;10.63;;
11203;SDS011;5659;49.408;11.116;2024-01-06T07:02:21;23.03;;;10.67;;
11203;SDS011;5659;49.408;11.116;2024-01-06T07:04:48;18.93;;;11.50;;
11203;SDS011;5659;49.408;11.116;2024-01-06T07:07:14;18.47;;;11.17;;
11203;SDS011;5659;49.408;11.116;2024-01-06T07:09:40;20.00;;;11.10;;
11203;SDS011;5659;49.408;11.116;2024-01-06T07:12:06;20.70;;;11.67;;
11203;SDS011;5659;49.408;11.116;2024-01-06T07:14:33;19.30;;;10.70;;
11203;SDS011;5659;49.408;11.116;2024-01-06T07:16:59;16.93;;;11.03;;
11203;SDS011;5659;49.408;11.116;2024-01-06T07:19:24;17.20;;;10.63;;
11203;SDS011;5659;49.408;11.116;2024-01-06T07:21:50;13.60;;;10.00;;
11203;SDS011;5659;49.408;11.116;2024-01-06T07:24:16;18.63;;;9.80;;
11203;SDS011;5659;49.408;11.116;2024-01-06T07:26:42;20.57;;;10.63;;
11203;SDS011;5659;49.408;11.116;2024-01-06T07:29:08;16.37;;;10.53;;
11203;SDS011;5659;49.408;11.116;2024-01-06T07:31:34;15.70;;;10.13;;
11203;SDS011;5659;49.408;11.116;2024-01-06T07:34:00;19.83;;;10.43;;
11203;SDS011;5659;49.408;11.116;2024-01-06T07:36:26;19.97;;;9.93;;
11203;SDS011;5659;49.408;11.116;2024-01-06T07:38:52;15.43;;;10.27;;
11203;SDS011;5659;49.408;11.116;2024-01-06T07:41:19;15.37;;;10.37;;
11203;SDS011;5659;49.408;11.116;2024-01-06T07:43:45;22.10;;;10.60;;
11203;SDS011;5659;49.408;11.116;2024-01-06T07:46:11;21.53;;;10.53;;
11203;SDS011;5659;49.408;11.116;2024-01-06T07:48:37;14.50;;;10.03;;
11203;SDS011;5659;49.408;11.116;2024-01-06T07:51:03;18.97;;;10.47;;
11203;SDS011;5659;49.408;11.116;2024-01-06T07:53:29;17.43;;;10.17;;
11203;SDS011;5659;49.408;11.116;2024-01-06T07:55:55;20.50;;;10.77;;
11203;SDS011;5659;49.408;11.116;2024-01-06T07:58:21;16.40;;;11.70;;
11203;SDS011;5659;49.408;11.116;2024-01-06T08:00:47;16.17;;;10.20;;
11203;SDS011;5659;49.408;11.116;2024-01-06T08:03:13;19.13;;;11.37;;
11203;SDS011;5659;49.408;11.116;2024-01-06T08:05:41;17.27;;;10.23;;
11203;SDS011;5659;49.408;11.116;2024-01-06T08:08:07;18.13;;;10.33;;
11203;SDS011;5659;49.408;11.116;2024-01-06T08:10:33;25.07;;;11.27;;
11203;SDS011;5659;49.408;11.116;2024-01-06T08:12:59;21.90;;;11.50;;
11203;SDS011;5659;49.408;11.116;2024-01-06T08:15:25;18.40;;;10.50;;
11203;SDS011;5659;49.408;11.116;2024-01-06T08:17:51;17.27;;;10.13;;
11203;SDS011;5659;49.408;11.116;2024-01-06T08:20:17;16.00;;;10.33;;
11203;SDS011;5659;49.408;11.116;2024-01-06T08:22:43;19.70;;;10.30;;
11203;SDS011;5659;49.408;11.116;2024-01-06T08:25:09;19.57;;;11.40;;
11203;SDS011;5659;49.408;11.116;2024-01-06T08:27:35;19.30;;;11.23;;
11203;SDS011;5659;49.408;11.116;2024-01-06T08:30:02;22.90;;;11.47;;
11203;SDS011;5659;49.408;11.116;2024-01-06T08:32:28;17.33;;;10.77;;
11203;SDS011;5659;49.408;11.116;2024-01-06T08:34:54;19.47;;;10.57;;
11203;SDS011;5659;49.408;11.116;2024-01-06T08:37:20;22.03;;;11.53;;
11203;SDS011;5659;49.408;11.116;2024-01-06T08:39:46;22.43;;;11.20;;
11203;SDS011;5659;49.408;11.116;2024-01-06T08:42:12;17.90;;;10.77;;
11203;SDS011;5659;49.408;11.116;2024-01-06T08:44:38;24.53;;;11.17;;
11203;SDS011;5659;49.408;11.116;2024-01-06T08:47:04;17.47;;;11.20;;
11203;SDS011;5659;49.408;11.116;2024-01-06T08:49:30;21.97;;;10.67;;
11203;SDS011;5659;49.408;11.116;2024-01-06T08:51:56;15.77;;;9.73;;
11203;SDS011;5659;49.408;11.116;2024-01-06T08:54:22;20.93;;;11.40;;
11203;SDS011;5659;49.408;11.116;2024-01-06T08:56:49;15.13;;;9.90;;
11203;SDS011;5659;49.408;11.116;2024-01-06T08:59:15;20.60;;;10.93;;
11203;SDS011;5659;49.408;11.116;2024-01-06T09:01:41;16.80;;;10.43;;
11203;SDS011;5659;49.408;11.116;2024-01-06T09:04:07;17.60;;;11.07;;
11203;SDS011;5659;49.408;11.116;2024-01-06T09:06:36;21.47;;;11.43;;
11203;SDS011;5659;49.408;11.116;2024-01-06T09:09:02;17.53;;;10.53;;
11203;SDS011;5659;49.408;11.116;2024-01-06T09:11:28;21.67;;;11.37;;
11203;SDS011;5659;49.408;11.116;2024-01-06T09:13:54;23.67;;;12.33;;
11203;SDS011;5659;49.408;11.116;2024-01-06T09:16:20;23.23;;;13.57;;
11203;SDS011;5659;49.408;11.116;2024-01-06T09:18:46;24.93;;;13.93;;
11203;SDS011;5659;49.408;11.116;2024-01-06T09:21:12;23.50;;;14.33;;
11203;SDS011;5659;49.408;11.116;2024-01-06T09:23:38;26.47;;;14.77;;
11203;SDS011;5659;49.408;11.116;2024-01-06T09:26:03;23.63;;;13.60;;
11203;SDS011;5659;49.408;11.116;2024-01-06T09:28:30;25.17;;;14.43;;
11203;SDS011;5659;49.408;11.116;2024-01-06T09:30:56;20.33;;;14.73;;
11203;SDS011;5659;49.408;11.116;2024-01-06T09:33:22;20.93;;;14.33;;
11203;SDS011;5659;49.408;11.116;2024-01-06T09:35:48;20.83;;;13.27;;
11203;SDS011;5659;49.408;11.116;2024-01-06T09:38:15;20.60;;;14.57;;
11203;SDS011;5659;49.408;11.116;2024-01-06T09:40:43;25.00;;;13.47;;
11203;SDS011;5659;49.408;11.116;2024-01-06T09:43:09;21.50;;;13.60;;
11203;SDS011;5659;49.408;11.116;2024-01-06T09:45:36;22.90;;;14.13;;
11203;SDS011;5659;49.408;11.116;2024-01-06T09:48:05;24.37;;;13.87;;
11203;SDS011;5659;49.408;11.116;2024-01-06T09:50:33;22.43;;;14.10;;
11203;SDS011;5659;49.408;11.116;2024-01-06T09:53:00;24.37;;;14.00;;
11203;SDS011;5659;49.408;11.116;2024-01-06T09:55:30;20.83;;;13.27;;
11203;SDS011;5659;49.408;11.116;2024-01-06T09:57:56;22.33;;;12.90;;
11203;SDS011;5659;49.408;11.116;2024-01-06T10:00:22;26.60;;;13.80;;
11203;SDS011;5659;49.408;11.116;2024-01-06T10:02:48;21.63;;;14.23;;
11203;SDS011;5659;49.408;11.116;2024-01-06T10:05:16;19.63;;;11.87;;
11203;SDS011;5659;49.408;11.116;2024-01-06T10:07:42;17.80;;;12.23;;
11203;SDS011;5659;49.408;11.116;2024-01-06T10:10:09;20.53;;;12.70;;
11203;SDS011;5659;49.408;11.116;2024-01-06T10:12:37;17.73;;;12.23;;
11203;SDS011;5659;49.408;11.116;2024-01-06T10:15:04;22.97;;;12.27;;
11203;SDS011;5659;49.408;11.116;2024-01-06T10:17:31;17.30;;;12.17;;
11203;SDS011;5659;49.408;11.116;2024-01-06T10:19:57;20.43;;;11.73;;
11203;SDS011;5659;49.408;11.116;2024-01-06T10:22:23;21.47;;;12.67;;
11203;SDS011;5659;49.408;11.116;2024-01-06T10:24:49;16.37;;;11.33;;
11203;SDS011;5659;49.408;11.116;2024-01-06T10:27:16;18.07;;;11.67;;
11203;SDS011;5659;49.408;11.116;2024-01-06T10:29:42;18.40;;;11.33;;
11203;SDS011;5659;49.408;11.116;2024-01-06T10:32:08;18.37;;;11.77;;
11203;SDS011;5659;49.408;11.116;2024-01-06T10:34:34;19.57;;;11.77;;
11203;SDS011;5659;49.408;11.116;2024-01-06T10:37:01;19.33;;;11.87;;
11203;SDS011;5659;49.408;11.116;2024-01-06T10:39:27;18.67;;;10.93;;
11203;SDS011;5659;49.408;11.116;2024-01-06T10:41:54;18.77;;;11.27;;
11203;SDS011;5659;49.408;11.116;2024-01-06T10:44:20;16.93;;;11.00;;
11203;SDS011;5659;49.408;11.116;2024-01-06T10:46:47;18.57;;;10.60;;
11203;SDS011;5659;49.408;11.116;2024-01-06T10:49:14;16.73;;;10.57;;
11203;SDS011;5659;49.408;11.116;2024-01-06T10:51:40;13.40;;;9.53;;
11203;SDS011;5659;49.408;11.116;2024-01-06T10:54:06;19.13;;;10.53;;
11203;SDS011;5659;49.408;11.116;2024-01-06T10:56:36;16.10;;;9.80;;
11203;SDS011;5659;49.408;11.116;2024-01-06T10:59:03;15.60;;;9.17;;
11203;SDS011;5659;49.408;11.116;2024-01-06T11:01:29;22.70;;;9.87;;
11203;SDS011;5659;49.408;11.116;2024-01-06T11:03:57;14.93;;;9.07;;
11203;SDS011;5659;49.408;11.116;2024-01-06T11:06:23;15.03;;;9.27;;
11203;SDS011;5659;49.408;11.116;2024-01-06T11:09:09;12.07;;;8.60;;
11203;SDS011;5659;49.408;11.116;2024-01-06T11:11:37;12.80;;;8.47;;
11203;SDS011;5659;49.408;11.116;2024-01-06T11:17:03;14.07;;;8.53;;
11203;SDS011;5659;49.408;11.116;2024-01-06T11:22:21;15.63;;;9.10;;
11203;SDS011;5659;49.408;11.116;2024-01-06T11:24:49;12.57;;;8.67;;
11203;SDS011;5659;49.408;11.116;2024-01-06T11:27:19;12.17;;;8.50;;
11203;SDS011;5659;49.408;11.116;2024-01-06T11:29:46;13.77;;;8.83;;
11203;SDS011;5659;49.408;11.116;2024-01-06T11:32:19;12.70;;;8.30;;
11203;SDS011;5659;49.408;11.116;2024-01-06T11:34:52;10.63;;;7.33;;
11203;SDS011;5659;49.408;11.116;2024-01-06T11:40:03;10.27;;;7.77;;
11203;SDS011;5659;49.408;11.116;2024-01-06T11:42:33;10.30;;;7.40;;
11203;SDS011;5659;49.408;11.116;2024-01-06T11:45:04;12.97;;;6.93;;
11203;SDS011;5659;49.408;11.116;2024-01-06T11:47:31;11.47;;;7.17;;
11203;SDS011;5659;49.408;11.116;2024-01-06T11:49:57;9.93;;;7.17;;
11203;SDS011;5659;49.408;11.116;2024-01-06T11:52:24;10.43;;;7.03;;
11203;SDS011;5659;49.408;11.116;2024-01-06T11:54:56;9.27;;;7.10;;
11203;SDS011;5659;49.408;11.116;2024-01-06T11:57:24;10.03;;;6.97;;
11203;SDS011;5659;49.408;11.116;2024-01-06T11:59:50;11.50;;;7.17;;
11203;SDS011;5659;49.408;11.116;2024-01-06T12:02:17;12.50;;;6.60;;
11203;SDS011;5659;49.408;11.116;2024-01-06T12:04:47;12.53;;;7.10;;
11203;SDS011;5659;49.408;11.116;2024-01-06T12:07:15;9.80;;;6.00;;
11203;SDS011;5659;49.408;11.116;2024-01-06T12:09:41;9.73;;;6.80;;
11203;SDS011;5659;49.408;11.116;2024-01-06T12:12:07;11.53;;;5.80;;
11203;SDS011;5659;49.408;11.116;2024-01-06T12:14:36;11.27;;;5.40;;
11203;SDS011;5659;49.408;11.116;2024-01-06T12:17:03;9.33;;;5.37;;
11203;SDS011;5659;49.408;11.116;2024-01-06T12:19:30;10.27;;;5.70;;
11203;SDS011;5659;49.408;11.116;2024-01-06T12:21:56;10.33;;;6.10;;
11203;SDS011;5659;49.408;11.116;2024-01-06T12:24:22;9.60;;;5.70;;
11203;SDS011;5659;49.408;11.116;2024-01-06T12:26:48;7.97;;;5.73;;
11203;SDS011;5659;49.408;11.116;2024-01-06T12:29:16;9.33;;;5.43;;
11203;SDS011;5659;49.408;11.116;2024-01-06T12:31:43;7.63;;;5.53;;
11203;SDS011;5659;49.408;11.116;2024-01-06T12:34:09;8.33;;;4.80;;
11203;SDS011;5659;49.408;11.116;2024-01-06T12:36:39;6.90;;;4.20;;
11203;SDS011;5659;49.408;11.116;2024-01-06T12:39:06;9.97;;;4.77;;
11203;SDS011;5659;49.408;11.116;2024-01-06T12:41:35;7.33;;;4.67;;
11203;SDS011;5659;49.408;11.116;2024-01-06T12:44:02;5.40;;;4.43;;
11203;SDS011;5659;49.408;11.116;2024-01-06T12:46:28;5.67;;;4.03;;
11203;SDS011;5659;49.408;11.116;2024-01-06T12:48:54;8.40;;;4.10;;
11203;SDS011;5659;49.408;11.116;2024-01-06T12:51:20;6.73;;;4.03;;
11203;SDS011;5659;49.408;11.116;2024-01-06T12:53:46;6.30;;;3.80;;
11203;SDS011;5659;49.408;11.116;2024-01-06T12:56:12;8.93;;;4.50;;
11203;SDS011;5659;49.408;11.116;2024-01-06T12:58:39;7.20;;;4.50;;
11203;SDS011;5659;49.408;11.116;2024-01-06T13:01:05;9.50;;;4.47;;
11203;SDS011;5659;49.408;11.116;2024-01-06T13:03:32;7.10;;;4.33;;
11203;SDS011;5659;49.408;11.116;2024-01-06T13:05:58;10.27;;;4.97;;
11203;SDS011;5659;49.408;11.116;2024-01-06T13:08:24;6.07;;;4.47;;
11203;SDS011;5659;49.408;11.116;2024-01-06T13:10:50;7.93;;;4.80;;
11203;SDS011;5659;49.408;11.116;2024-01-06T13:13:16;9.87;;;5.73;;
11203;SDS011;5659;49.408;11.116;2024-01-06T13:15:42;9.60;;;5.10;;
11203;SDS011;5659;49.408;11.116;2024-01-06T13:18:08;10.17;;;5.30;;
11203;SDS011;5659;49.408;11.116;2024-01-06T13:20:35;6.53;;;5.43;;
11203;SDS011;5659;49.408;11.116;2024-01-06T13:23:02;10.60;;;4.93;;
11203;SDS011;5659;49.408;11.116;2024-01-06T13:25:31;8.67;;;5.00;;
11203;SDS011;5659;49.408;11.116;2024-01-06T13:27:57;8.07;;;5.07;;
11203;SDS011;5659;49.408;11.116;2024-01-06T13:30:24;7.10;;;4.53;;
11203;SDS011;5659;49.408;11.116;2024-01-06T13:32:50;8.27;;;5.00;;
11203;SDS011;5659;49.408;11.116;2024-01-06T13:35:19;8.23;;;4.40;;
11203;SDS011;5659;49.408;11.116;2024-01-06T13:37:45;9.70;;;4.47;;
11203;SDS011;5659;49.408;11.116;2024-01-06T13:40:13;6.30;;;4.47;;
11203;SDS011;5659;49.408;11.116;2024-01-06T13:42:39;7.50;;;4.33;;
11203;SDS011;5659;49.408;11.116;2024-01-06T13:45:05;6.37;;;4.63;;
11203;SDS011;5659;49.408;11.116;2024-01-06T13:47:31;8.53;;;5.23;;
11203;SDS011;5659;49.408;11.116;2024-01-06T13:49:57;9.43;;;4.50;;
11203;SDS011;5659;49.408;11.116;2024-01-06T13:52:23;6.40;;;4.63;;
11203;SDS011;5659;49.408;11.116;2024-01-06T13:54:50;9.20;;;4.93;;
11203;SDS011;5659;49.408;11.116;2024-01-06T13:57:16;8.83;;;4.73;;
11203;SDS011;5659;49.408;11.116;2024-01-06T13:59:42;11.97;;;6.03;;
11203;SDS011;5659;49.408;11.116;2024-01-06T14:02:11;7.37;;;4.97;;
11203;SDS011;5659;49.408;11.116;2024-01-06T14:04:37;12.93;;;5.80;;
11203;SDS011;5659;49.408;11.116;2024-01-06T14:07:03;9.67;;;5.00;;
11203;SDS011;5659;49.408;11.116;2024-01-06T14:09:30;7.93;;;5.37;;
11203;SDS011;5659;49.408;11.116;2024-01-06T14:11:56;8.53;;;5.37;;
11203;SDS011;5659;49.408;11.116;2024-01-06T14:14:22;10.53;;;5.20;;
11203;SDS011;5659;49.408;11.116;2024-01-06T14:16:48;7.47;;;5.10;;
11203;SDS011;5659;49.408;11.116;2024-01-06T14:19:15;7.47;;;4.93;;
11203;SDS011;5659;49.408;11.116;2024-01-06T14:21:41;8.20;;;4.70;;
11203;SDS011;5659;49.408;11.116;2024-01-06T14:24:07;8.27;;;5.50;;
11203;SDS011;5659;49.408;11.116;2024-01-06T14:26:33;11.63;;;5.60;;
11203;SDS011;5659;49.408;11.116;2024-01-06T14:28:59;7.53;;;5.13;;